WXM80 ListenWXM80 Stop

You find our weather info also at:

UK Metoffice

WeatherCloud

Weather Underground

Northeastern Weather Network

AWEKAS

Citizen Weather Observer Program (CWOP)

HAMweather, WeatherForYou, PWS Weather


Weather Underground History page Text

Daily Summary for June 12, 2016 Units:  English    Metric   Both
« Previous Day
Next Day »
Daily Weekly Monthly Yearly Custom
  High: Low: Average:
Temperature: 86.5 °F 61.6 °F 73.6 °F
Dew Point: 69.0 °F 49.6 °F 58.9 °F
Humidity: 96 % 30 % 63 %
Wind Speed: 9.5 mph 0.0 mph 4.2 mph
Wind Gust: 19.6 mph - -
Wind:- - SW
Pressure: 29.75 in 29.55 in -
Precipitation: 0.00 in    
Historical Graphs
 
 
Tabular Data for June 12, 2016
Time Temperature Dew Point Pressure Wind Wind Speed Wind Gust Humidity Rainfall Rate (Hourly)
00:01 65.0 °F 61.7 °F 29.69 in Calm     89 % 0.00 in
00:06 64.9 °F 61.6 °F 29.69 in Calm     89 % 0.00 in
00:11 64.8 °F 61.5 °F 29.69 in Calm     89 % 0.00 in
00:16 64.7 °F 61.4 °F 29.70 in NNE 0.5 mph 1.2 mph 89 % 0.00 in
00:21 64.7 °F 61.4 °F 29.69 in Calm     89 % 0.00 in
00:26 64.5 °F 61.2 °F 29.70 in Calm     89 % 0.00 in
00:31 64.4 °F 61.1 °F 29.69 in Calm     89 % 0.00 in
00:36 64.4 °F 61.1 °F 29.70 in Calm     89 % 0.00 in
00:41 64.3 °F 61.0 °F 29.69 in Calm     89 % 0.00 in
00:47 64.2 °F 60.9 °F 29.69 in Calm     89 % 0.00 in
00:52 64.1 °F 61.1 °F 29.69 in Calm     90 % 0.00 in
00:57 64.1 °F 61.1 °F 29.68 in Calm     90 % 0.00 in
01:02 64.0 °F 61.0 °F 29.68 in Calm     90 % 0.00 in
01:07 63.9 °F 60.9 °F 29.68 in Calm     90 % 0.00 in
01:12 63.9 °F 60.9 °F 29.68 in Calm     90 % 0.00 in
01:17 63.8 °F 60.8 °F 29.67 in Calm     90 % 0.00 in
01:22 63.7 °F 61.0 °F 29.67 in NNE 0.2 mph 1.0 mph 91 % 0.00 in
01:27 63.7 °F 61.0 °F 29.67 in NNE 0.8 mph 2.3 mph 91 % 0.00 in
01:32 63.7 °F 61.3 °F 29.67 in NNE 0.7 mph 1.2 mph 92 % 0.00 in
01:43 63.7 °F 61.3 °F 29.67 in Calm   1.2 mph 92 % 0.00 in
01:48 63.8 °F 61.7 °F 29.66 in Calm   2.3 mph 93 % 0.00 in
01:53 63.7 °F 61.3 °F 29.66 in NNE 0.7 mph 2.0 mph 92 % 0.00 in
01:58 63.7 °F 61.6 °F 29.66 in NNE 0.1 mph 1.2 mph 93 % 0.00 in
02:03 63.7 °F 61.6 °F 29.66 in Calm     93 % 0.00 in
02:08 63.7 °F 61.6 °F 29.66 in Calm     93 % 0.00 in
02:13 63.8 °F 61.7 °F 29.65 in NNE 1.9 mph 3.5 mph 93 % 0.00 in
02:18 64.0 °F 62.2 °F 29.65 in NNE 1.3 mph 2.3 mph 94 % 0.00 in
02:23 64.1 °F 62.3 °F 29.64 in Calm     94 % 0.00 in
02:29 64.2 °F 62.7 °F 29.64 in Calm     95 % 0.00 in
02:34 64.3 °F 62.8 °F 29.64 in Calm     95 % 0.00 in
02:39 64.6 °F 63.1 °F 29.64 in NNE 0.5 mph 3.0 mph 95 % 0.00 in
02:44 64.9 °F 63.4 °F 29.64 in Calm     95 % 0.00 in
02:49 65.2 °F 64.0 °F 29.63 in Calm     96 % 0.00 in
02:54 65.4 °F 64.2 °F 29.63 in Calm     96 % 0.00 in
02:59 65.6 °F 64.4 °F 29.63 in Calm     96 % 0.00 in
03:04 65.8 °F 64.6 °F 29.63 in Calm   1.2 mph 96 % 0.00 in
03:09 66.0 °F 64.8 °F 29.63 in Calm   1.2 mph 96 % 0.00 in
03:14 66.2 °F 65.0 °F 29.62 in NNE 0.2 mph 1.2 mph 96 % 0.00 in
03:20 66.4 °F 65.2 °F 29.62 in NNE 1.2 mph 2.3 mph 96 % 0.00 in
03:25 66.6 °F 65.1 °F 29.62 in SW 1.8 mph 2.3 mph 95 % 0.00 in
03:30 66.8 °F 65.3 °F 29.62 in SSW 1.5 mph 3.5 mph 95 % 0.00 in
03:35 67.2 °F 65.4 °F 29.61 in SW 1.7 mph 3.5 mph 94 % 0.00 in
03:40 67.6 °F 65.8 °F 29.61 in SW 2.6 mph 3.5 mph 94 % 0.00 in
03:45 68.2 °F 66.1 °F 29.61 in SSW 2.1 mph 4.6 mph 93 % 0.00 in
03:46 68.2 °F 65.8 °F 29.61 in WSW 1.3 mph 4.6 mph 92 % 0.00 in
03:51 68.9 °F 66.2 °F 29.61 in SW 2.6 mph 8.1 mph 91 % 0.00 in
03:56 69.4 °F 66.3 °F 29.61 in SW 1.7 mph 3.5 mph 90 % 0.00 in
04:01 69.9 °F 66.2 °F 29.61 in SW 1.5 mph 3.5 mph 88 % 0.00 in
04:06 70.4 °F 66.3 °F 29.61 in SW 1.0 mph 3.5 mph 87 % 0.00 in
04:11 70.9 °F 66.5 °F 29.61 in SSW 3.4 mph 9.2 mph 86 % 0.00 in
04:16 71.4 °F 66.7 °F 29.61 in WSW 1.7 mph 3.5 mph 85 % 0.00 in
04:21 71.8 °F 67.0 °F 29.60 in SSW 2.0 mph 4.6 mph 85 % 0.00 in
04:32 72.4 °F 66.9 °F 29.60 in SSW 1.8 mph 3.5 mph 83 % 0.00 in
04:37 72.6 °F 67.1 °F 29.60 in SW 1.0 mph 3.5 mph 83 % 0.00 in
04:47 72.9 °F 67.4 °F 29.60 in SW 3.8 mph 4.6 mph 83 % 0.00 in
04:52 73.0 °F 67.2 °F 29.60 in WSW 2.4 mph 3.5 mph 82 % 0.00 in
04:57 73.1 °F 67.3 °F 29.59 in SSW 2.2 mph 5.0 mph 82 % 0.00 in
05:02 73.3 °F 67.1 °F 29.59 in SW 1.3 mph 3.0 mph 81 % 0.00 in
05:07 73.4 °F 67.6 °F 29.58 in SW 0.6 mph 3.5 mph 82 % 0.00 in
05:12 73.5 °F 67.3 °F 29.58 in SSW 4.9 mph 7.0 mph 81 % 0.00 in
05:17 73.8 °F 68.0 °F 29.58 in SW 2.9 mph 3.5 mph 82 % 0.00 in
05:23 73.9 °F 67.7 °F 29.59 in SSW 2.7 mph 5.0 mph 81 % 0.00 in
05:28 74.0 °F 67.8 °F 29.59 in WSW 3.6 mph 8.1 mph 81 % 0.00 in
05:33 74.1 °F 67.9 °F 29.59 in SW 5.8 mph 10.0 mph 81 % 0.00 in
05:38 74.3 °F 68.1 °F 29.59 in SW 3.5 mph 9.2 mph 81 % 0.00 in
05:43 74.5 °F 67.9 °F 29.59 in WSW 4.4 mph 6.9 mph 80 % 0.00 in
05:48 74.7 °F 68.1 °F 29.59 in SSW 3.3 mph 5.8 mph 80 % 0.00 in
05:58 75.1 °F 67.8 °F 29.59 in SW 5.1 mph 8.1 mph 78 % 0.00 in
06:03 75.3 °F 68.0 °F 29.58 in SSW 4.3 mph 6.9 mph 78 % 0.00 in
06:08 75.6 °F 68.3 °F 29.58 in WSW 2.8 mph 11.5 mph 78 % 0.00 in
06:14 75.8 °F 68.1 °F 29.59 in SW 3.6 mph 8.1 mph 77 % 0.00 in
06:19 75.9 °F 68.2 °F 29.59 in WSW 2.6 mph 6.9 mph 77 % 0.00 in
06:24 76.2 °F 68.1 °F 29.59 in SSW 2.7 mph 9.2 mph 76 % 0.00 in
06:29 76.4 °F 68.3 °F 29.59 in SSW 5.8 mph 8.1 mph 76 % 0.00 in
06:34 76.6 °F 68.5 °F 29.58 in SSW 3.8 mph 7.0 mph 76 % 0.00 in
06:39 76.9 °F 68.4 °F 29.58 in SSW 3.9 mph 5.8 mph 75 % 0.00 in
06:44 77.1 °F 68.2 °F 29.58 in SSW 7.2 mph 11.5 mph 74 % 0.00 in
06:49 77.5 °F 68.2 °F 29.59 in SW 7.9 mph 17.3 mph 73 % 0.00 in
06:54 77.8 °F 68.4 °F 29.59 in SW 4.7 mph 7.0 mph 73 % 0.00 in
06:59 78.2 °F 68.4 °F 29.59 in SSW 5.7 mph 12.7 mph 72 % 0.00 in
07:05 78.5 °F 68.7 °F 29.59 in WSW 4.3 mph 9.2 mph 72 % 0.00 in
07:10 78.7 °F 68.9 °F 29.59 in West 3.9 mph 10.4 mph 72 % 0.00 in
07:15 79.0 °F 68.8 °F 29.59 in WNW 3.5 mph 8.1 mph 71 % 0.00 in
07:20 79.3 °F 68.7 °F 29.59 in West 2.6 mph 11.5 mph 70 % 0.00 in
07:25 79.4 °F 68.8 °F 29.59 in WSW 3.4 mph 7.0 mph 70 % 0.00 in
07:30 79.4 °F 68.3 °F 29.59 in SSW 6.4 mph 12.7 mph 69 % 0.00 in
07:35 79.5 °F 68.9 °F 29.59 in SW 5.3 mph 10.4 mph 70 % 0.00 in
07:40 79.5 °F 68.9 °F 29.59 in SW 5.3 mph 12.7 mph 70 % 0.00 in
07:45 79.4 °F 68.3 °F 29.59 in West 5.7 mph 10.4 mph 69 % 0.00 in
07:51 79.4 °F 68.8 °F 29.59 in SW 7.1 mph 10.4 mph 70 % 0.00 in
07:56 79.5 °F 68.4 °F 29.58 in West 5.4 mph 15.0 mph 69 % 0.00 in
08:01 79.5 °F 68.9 °F 29.58 in WSW 6.4 mph 10.4 mph 70 % 0.00 in
08:06 79.6 °F 68.5 °F 29.58 in WSW 6.1 mph 13.8 mph 69 % 0.00 in
08:11 79.7 °F 68.6 °F 29.57 in SSW 5.3 mph 8.1 mph 69 % 0.00 in
08:16 79.8 °F 68.7 °F 29.57 in SW 6.5 mph 15.0 mph 69 % 0.00 in
08:21 79.9 °F 68.8 °F 29.57 in SW 5.0 mph 11.5 mph 69 % 0.00 in
08:26 80.1 °F 69.0 °F 29.57 in SSW 5.0 mph 10.4 mph 69 % 0.00 in
08:31 80.3 °F 68.3 °F 29.57 in WNW 7.5 mph 10.0 mph 67 % 0.00 in
08:36 80.5 °F 67.2 °F 29.56 in WSW 5.3 mph 9.2 mph 64 % 0.00 in
08:42 80.7 °F 67.4 °F 29.56 in WSW 6.1 mph 10.4 mph 64 % 0.00 in
08:47 80.9 °F 68.0 °F 29.56 in WSW 4.0 mph 8.1 mph 65 % 0.00 in
08:52 81.0 °F 66.8 °F 29.56 in WSW 4.9 mph 13.8 mph 62 % 0.00 in
08:57 81.1 °F 67.3 °F 29.56 in WSW 4.8 mph 11.5 mph 63 % 0.00 in
09:02 81.3 °F 68.0 °F 29.56 in West 5.6 mph 12.7 mph 64 % 0.00 in
09:07 81.5 °F 68.1 °F 29.56 in West 4.7 mph 9.0 mph 64 % 0.00 in
09:12 81.5 °F 66.8 °F 29.56 in SW 6.4 mph 12.7 mph 61 % 0.00 in
09:17 81.5 °F 66.8 °F 29.56 in WSW 3.8 mph 11.5 mph 61 % 0.00 in
09:22 81.5 °F 66.3 °F 29.56 in West 7.9 mph 10.4 mph 60 % 0.00 in
09:27 81.6 °F 65.4 °F 29.56 in WNW 9.3 mph 19.6 mph 58 % 0.00 in
09:33 81.8 °F 65.1 °F 29.56 in WNW 5.4 mph 11.5 mph 57 % 0.00 in
09:38 82.1 °F 64.3 °F 29.56 in WNW 3.8 mph 13.8 mph 55 % 0.00 in
09:43 82.5 °F 60.8 °F 29.56 in NW 6.5 mph 17.3 mph 48 % 0.00 in
09:48 82.9 °F 60.0 °F 29.56 in WSW 7.2 mph 11.5 mph 46 % 0.00 in
09:53 83.2 °F 59.6 °F 29.56 in North 9.5 mph 15.0 mph 45 % 0.00 in
09:58 83.6 °F 60.0 °F 29.56 in NNW 6.1 mph 11.5 mph 45 % 0.00 in
10:03 84.0 °F 59.1 °F 29.56 in West 5.9 mph 13.8 mph 43 % 0.00 in
10:08 84.3 °F 58.0 °F 29.56 in SSW 5.5 mph 8.1 mph 41 % 0.00 in
10:13 84.6 °F 57.6 °F 29.56 in SW 3.5 mph 15.0 mph 40 % 0.00 in
10:18 85.0 °F 59.3 °F 29.56 in WNW 5.7 mph 12.7 mph 42 % 0.00 in
10:24 85.2 °F 58.2 °F 29.56 in WNW 3.2 mph 11.5 mph 40 % 0.00 in
10:29 85.5 °F 59.8 °F 29.56 in NW 4.3 mph 11.0 mph 42 % 0.00 in
10:34 85.8 °F 62.0 °F 29.56 in West 6.4 mph 11.5 mph 45 % 0.00 in
10:39 86.1 °F 64.1 °F 29.56 in WNW 4.0 mph 9.2 mph 48 % 0.00 in
10:44 86.5 °F 63.9 °F 29.57 in West 6.8 mph 11.5 mph 47 % 0.00 in
10:49 86.4 °F 60.6 °F 29.57 in West 6.7 mph 16.1 mph 42 % 0.00 in
10:54 86.4 °F 63.2 °F 29.57 in West 2.7 mph 11.0 mph 46 % 0.00 in
10:59 86.1 °F 59.0 °F 29.57 in WNW 6.6 mph 15.0 mph 40 % 0.00 in
11:04 85.8 °F 56.5 °F 29.57 in WNW 5.6 mph 15.0 mph 37 % 0.00 in
11:09 86.0 °F 59.6 °F 29.57 in WSW 4.5 mph 15.0 mph 41 % 0.00 in
11:15 86.2 °F 58.3 °F 29.57 in ENE 5.8 mph 11.5 mph 39 % 0.00 in
11:20 86.0 °F 55.9 °F 29.57 in East 4.2 mph 11.5 mph 36 % 0.00 in
11:25 85.3 °F 56.1 °F 29.57 in WSW 5.0 mph 11.5 mph 37 % 0.00 in
11:30 84.9 °F 55.7 °F 29.57 in SW 4.5 mph 10.4 mph 37 % 0.00 in
11:35 84.6 °F 55.5 °F 29.57 in NNE 5.0 mph 12.7 mph 37 % 0.00 in
11:40 84.4 °F 57.4 °F 29.58 in NW 2.5 mph 5.8 mph 40 % 0.00 in
11:45 84.2 °F 57.3 °F 29.57 in NW 5.0 mph 11.5 mph 40 % 0.00 in
11:50 83.9 °F 57.7 °F 29.57 in North 5.0 mph 9.2 mph 41 % 0.00 in
11:55 83.6 °F 58.1 °F 29.58 in North 3.6 mph 6.0 mph 42 % 0.00 in
12:00 83.5 °F 55.9 °F 29.57 in WSW 5.1 mph 11.5 mph 39 % 0.00 in
12:06 83.3 °F 55.8 °F 29.57 in WNW 6.9 mph 9.0 mph 39 % 0.00 in
12:11 83.2 °F 56.4 °F 29.57 in North 2.4 mph 5.0 mph 40 % 0.00 in
12:16 83.5 °F 58.6 °F 29.57 in NNW 3.5 mph 10.0 mph 43 % 0.00 in
12:21 83.6 °F 56.0 °F 29.57 in WNW 5.9 mph 11.5 mph 39 % 0.00 in
12:26 83.7 °F 58.2 °F 29.57 in West 7.2 mph 13.0 mph 42 % 0.00 in
12:31 83.9 °F 59.7 °F 29.57 in NW 3.1 mph 9.0 mph 44 % 0.00 in
12:41 84.8 °F 57.1 °F 29.56 in WNW 4.8 mph 15.0 mph 39 % 0.00 in
12:51 84.8 °F 52.5 °F 29.56 in WNW 8.5 mph 13.8 mph 33 % 0.00 in
13:02 84.5 °F 52.2 °F 29.56 in NNW 7.5 mph 13.8 mph 33 % 0.00 in
13:07 84.5 °F 49.7 °F 29.56 in WNW 9.1 mph 19.6 mph 30 % 0.00 in
13:12 84.4 °F 50.5 °F 29.56 in WNW 7.9 mph 17.3 mph 31 % 0.00 in
13:17 84.3 °F 51.2 °F 29.56 in WSW 7.9 mph 12.7 mph 32 % 0.00 in
13:22 84.4 °F 52.1 °F 29.55 in West 7.2 mph 15.0 mph 33 % 0.00 in
13:27 84.2 °F 52.8 °F 29.56 in West 8.0 mph 13.0 mph 34 % 0.00 in
13:32 84.3 °F 52.9 °F 29.56 in WNW 2.7 mph 11.5 mph 34 % 0.00 in
13:37 84.6 °F 53.1 °F 29.56 in SSW 5.4 mph 11.5 mph 34 % 0.00 in
13:42 84.8 °F 52.5 °F 29.56 in SW 8.6 mph 11.5 mph 33 % 0.00 in
13:58 84.6 °F 53.1 °F 29.57 in SSW 6.1 mph 10.0 mph 34 % 0.00 in
14:08 84.4 °F 54.5 °F 29.57 in NE 7.5 mph 15.0 mph 36 % 0.00 in
14:13 84.4 °F 57.4 °F 29.57 in WNW 8.2 mph 19.6 mph 40 % 0.00 in
14:18 84.2 °F 55.1 °F 29.57 in WNW 6.8 mph 13.8 mph 37 % 0.00 in
14:23 83.9 °F 55.6 °F 29.57 in NNW 4.7 mph 9.2 mph 38 % 0.00 in
14:28 83.7 °F 58.2 °F 29.58 in NNE 3.3 mph 7.0 mph 42 % 0.00 in
14:33 83.4 °F 55.8 °F 29.58 in NNW 6.2 mph 6.9 mph 39 % 0.00 in
14:39 83.2 °F 56.4 °F 29.58 in WNW 6.2 mph 10.0 mph 40 % 0.00 in
14:49 82.6 °F 55.1 °F 29.58 in North 2.5 mph 10.4 mph 39 % 0.00 in
14:54 82.7 °F 56.6 °F 29.58 in NE 4.4 mph 8.1 mph 41 % 0.00 in
14:59 82.4 °F 57.0 °F 29.58 in North 4.6 mph 8.0 mph 42 % 0.00 in
15:04 82.0 °F 55.3 °F 29.58 in NW 4.3 mph 6.9 mph 40 % 0.00 in
15:09 81.8 °F 56.5 °F 29.58 in NNW 0.7 mph 9.2 mph 42 % 0.00 in
15:14 81.9 °F 56.6 °F 29.58 in SSW 4.3 mph 5.8 mph 42 % 0.00 in
15:19 81.8 °F 57.8 °F 29.59 in WNW 4.1 mph 9.2 mph 44 % 0.00 in
15:24 81.7 °F 57.7 °F 29.59 in NNE 1.8 mph 10.4 mph 44 % 0.00 in
15:30 81.4 °F 57.4 °F 29.59 in SSW 1.2 mph 4.6 mph 44 % 0.00 in
15:35 81.2 °F 58.5 °F 29.59 in SW 4.0 mph 9.0 mph 46 % 0.00 in
15:40 81.0 °F 56.4 °F 29.59 in West 4.3 mph 10.4 mph 43 % 0.00 in
15:45 80.9 °F 55.7 °F 29.60 in NE 4.2 mph 8.1 mph 42 % 0.00 in
15:50 80.8 °F 56.9 °F 29.60 in NNW 5.0 mph 9.0 mph 44 % 0.00 in
15:55 80.5 °F 57.2 °F 29.60 in West 5.1 mph 10.4 mph 45 % 0.00 in
16:00 80.3 °F 56.4 °F 29.61 in WNW 6.8 mph 11.5 mph 44 % 0.00 in
16:05 79.8 °F 55.9 °F 29.61 in WNW 3.2 mph 8.0 mph 44 % 0.00 in
16:10 78.8 °F 55.7 °F 29.61 in North 5.2 mph 18.4 mph 45 % 0.00 in
16:15 78.3 °F 55.8 °F 29.61 in West 2.7 mph 3.5 mph 46 % 0.00 in
16:21 78.0 °F 54.9 °F 29.61 in NNE 3.3 mph 8.1 mph 45 % 0.00 in
16:26 77.8 °F 55.4 °F 29.61 in NNW 3.2 mph 5.8 mph 46 % 0.00 in
16:31 77.5 °F 56.3 °F 29.62 in South 2.3 mph 12.7 mph 48 % 0.00 in
16:36 77.1 °F 55.3 °F 29.62 in West 8.6 mph 16.1 mph 47 % 0.00 in
16:41 76.9 °F 53.9 °F 29.62 in NW 9.1 mph 11.5 mph 45 % 0.00 in
16:46 76.7 °F 53.8 °F 29.62 in WNW 8.9 mph 17.3 mph 45 % 0.00 in
16:51 76.4 °F 54.1 °F 29.62 in NNW 4.3 mph 10.4 mph 46 % 0.00 in
16:56 76.1 °F 53.8 °F 29.63 in WNW 3.8 mph 9.2 mph 46 % 0.00 in
17:01 75.6 °F 54.5 °F 29.63 in North 5.6 mph 11.5 mph 48 % 0.00 in
17:12 75.0 °F 54.0 °F 29.63 in WNW 5.1 mph 9.2 mph 48 % 0.00 in
17:17 74.6 °F 54.7 °F 29.63 in NNW 5.4 mph 11.5 mph 50 % 0.00 in
17:22 74.2 °F 54.9 °F 29.63 in North 5.7 mph 9.2 mph 51 % 0.00 in
17:27 74.0 °F 54.2 °F 29.64 in ESE 7.0 mph 11.5 mph 50 % 0.00 in
17:32 73.7 °F 55.0 °F 29.64 in NNW 2.7 mph 4.6 mph 52 % 0.00 in
17:37 73.2 °F 54.5 °F 29.65 in WNW 3.2 mph 8.0 mph 52 % 0.00 in
17:42 72.9 °F 54.2 °F 29.65 in NNW 3.6 mph 9.2 mph 52 % 0.00 in
17:47 72.4 °F 53.2 °F 29.66 in WNW 5.0 mph 13.0 mph 51 % 0.00 in
17:52 72.0 °F 53.9 °F 29.66 in NW 4.7 mph 9.0 mph 53 % 0.00 in
17:57 71.6 °F 53.6 °F 29.66 in WNW 5.0 mph 10.0 mph 53 % 0.00 in
18:08 71.0 °F 53.0 °F 29.67 in NE 4.2 mph 11.5 mph 53 % 0.00 in
18:13 70.7 °F 52.2 °F 29.67 in NW 6.8 mph 11.5 mph 52 % 0.00 in
18:18 70.4 °F 51.9 °F 29.67 in North 6.3 mph 11.5 mph 52 % 0.00 in
18:23 69.8 °F 51.9 °F 29.67 in NNW 6.6 mph 12.7 mph 53 % 0.00 in
18:28 69.4 °F 51.5 °F 29.67 in NW 5.5 mph 18.0 mph 53 % 0.00 in
18:33 69.0 °F 52.2 °F 29.68 in West 6.4 mph 13.8 mph 55 % 0.00 in
18:38 68.9 °F 52.1 °F 29.69 in WNW 6.6 mph 13.8 mph 55 % 0.00 in
18:43 68.6 °F 50.8 °F 29.69 in West 7.8 mph 13.8 mph 53 % 0.00 in
18:48 68.3 °F 52.0 °F 29.69 in WNW 5.3 mph 12.7 mph 56 % 0.00 in
18:54 68.2 °F 51.4 °F 29.70 in WNW 6.4 mph 12.7 mph 55 % 0.00 in
18:59 68.0 °F 51.2 °F 29.70 in NNW 8.8 mph 16.0 mph 55 % 0.00 in
19:04 67.9 °F 51.6 °F 29.70 in NE 4.3 mph 11.5 mph 56 % 0.00 in
19:09 67.9 °F 51.6 °F 29.71 in NNW 6.1 mph 10.4 mph 56 % 0.00 in
19:14 67.8 °F 52.0 °F 29.71 in NW 2.0 mph 6.0 mph 57 % 0.00 in
19:19 67.8 °F 52.0 °F 29.71 in NW 5.0 mph 10.4 mph 57 % 0.00 in
19:24 67.6 °F 52.3 °F 29.71 in NE 6.1 mph 15.0 mph 58 % 0.00 in
19:29 67.2 °F 51.4 °F 29.72 in West 6.0 mph 11.5 mph 57 % 0.00 in
19:34 67.0 °F 51.7 °F 29.71 in NNE 1.6 mph 4.6 mph 58 % 0.00 in
19:40 66.8 °F 51.5 °F 29.71 in NW 6.3 mph 12.7 mph 58 % 0.00 in
19:45 66.5 °F 50.8 °F 29.72 in NNE 4.3 mph 8.1 mph 57 % 0.00 in
19:50 66.3 °F 51.5 °F 29.72 in WNW 4.3 mph 7.0 mph 59 % 0.00 in
19:55 66.1 °F 51.8 °F 29.72 in NNW 2.3 mph 9.2 mph 60 % 0.00 in
20:00 66.0 °F 52.6 °F 29.72 in NNE 3.1 mph 9.2 mph 62 % 0.00 in
20:05 65.7 °F 51.9 °F 29.72 in NNW 5.5 mph 9.0 mph 61 % 0.00 in
20:10 65.5 °F 50.8 °F 29.72 in NNE 4.7 mph 11.5 mph 59 % 0.00 in
20:15 65.3 °F 50.6 °F 29.72 in WNW 4.4 mph 8.0 mph 59 % 0.00 in
20:20 65.2 °F 50.5 °F 29.72 in NNW 4.4 mph 9.2 mph 59 % 0.00 in
20:25 65.0 °F 50.3 °F 29.72 in WNW 4.7 mph 10.4 mph 59 % 0.00 in
20:31 64.8 °F 50.1 °F 29.73 in North 5.8 mph 13.8 mph 59 % 0.00 in
20:36 64.7 °F 49.6 °F 29.73 in NW 6.7 mph 12.7 mph 58 % 0.00 in
20:41 64.5 °F 50.3 °F 29.73 in WNW 5.2 mph 15.0 mph 60 % 0.00 in
20:46 64.4 °F 50.2 °F 29.73 in NW 7.1 mph 13.8 mph 60 % 0.00 in
20:51 64.3 °F 50.6 °F 29.73 in West 6.3 mph 13.8 mph 61 % 0.00 in
20:56 64.1 °F 51.2 °F 29.73 in NNW 6.1 mph 14.0 mph 63 % 0.00 in
21:01 64.0 °F 51.1 °F 29.73 in WNW 3.5 mph 10.4 mph 63 % 0.00 in
21:06 63.8 °F 51.4 °F 29.73 in NNW 4.3 mph 10.0 mph 64 % 0.00 in
21:11 63.6 °F 50.3 °F 29.73 in NW 3.9 mph 11.5 mph 62 % 0.00 in
21:22 63.4 °F 50.6 °F 29.74 in North 5.8 mph 11.5 mph 63 % 0.00 in
21:27 63.3 °F 50.1 °F 29.74 in North 7.7 mph 11.5 mph 62 % 0.00 in
21:32 63.2 °F 50.4 °F 29.74 in North 5.0 mph 11.5 mph 63 % 0.00 in
21:37 63.1 °F 49.9 °F 29.74 in WNW 7.1 mph 12.7 mph 62 % 0.00 in
21:42 63.0 °F 49.8 °F 29.74 in West 6.5 mph 12.7 mph 62 % 0.00 in
21:52 62.8 °F 50.0 °F 29.74 in NE 5.5 mph 10.0 mph 63 % 0.00 in
21:57 62.8 °F 50.9 °F 29.74 in NW 2.7 mph 10.4 mph 65 % 0.00 in
22:02 62.7 °F 51.2 °F 29.74 in SE 5.6 mph 9.2 mph 66 % 0.00 in
22:07 62.5 °F 51.4 °F 29.74 in NW 4.3 mph 12.0 mph 67 % 0.00 in
22:13 62.3 °F 50.4 °F 29.74 in SW 5.3 mph 12.7 mph 65 % 0.00 in
22:18 62.3 °F 50.4 °F 29.74 in NNW 6.7 mph 13.8 mph 65 % 0.00 in
22:23 62.2 °F 50.3 °F 29.74 in SW 2.3 mph 4.6 mph 65 % 0.00 in
22:28 62.2 °F 50.7 °F 29.75 in NW 3.7 mph 9.2 mph 66 % 0.00 in
22:33 62.1 °F 50.6 °F 29.75 in WSW 6.2 mph 12.7 mph 66 % 0.00 in
22:38 62.0 °F 50.9 °F 29.74 in West 5.4 mph 11.5 mph 67 % 0.00 in
22:48 61.8 °F 50.7 °F 29.74 in NW 3.8 mph 6.9 mph 67 % 0.00 in
22:53 61.8 °F 50.7 °F 29.74 in NNE 2.7 mph 11.5 mph 67 % 0.00 in
22:58 61.9 °F 50.8 °F 29.74 in NNW 8.7 mph 15.0 mph 67 % 0.00 in
23:04 61.9 °F 50.8 °F 29.74 in NE 5.3 mph 10.4 mph 67 % 0.00 in
23:09 62.0 °F 50.5 °F 29.74 in North 5.0 mph 13.8 mph 66 % 0.00 in
23:14 62.0 °F 50.5 °F 29.75 in East 5.3 mph 10.4 mph 66 % 0.00 in
23:19 62.0 °F 50.5 °F 29.75 in North 4.8 mph 10.4 mph 66 % 0.00 in
23:24 62.0 °F 50.5 °F 29.75 in NNE 3.3 mph 6.9 mph 66 % 0.00 in
23:39 61.8 °F 50.7 °F 29.74 in WNW 2.7 mph 9.2 mph 67 % 0.00 in
23:44 61.7 °F 50.6 °F 29.75 in NNW 4.4 mph 11.5 mph 67 % 0.00 in
23:49 61.6 °F 50.1 °F 29.75 in West 3.8 mph 9.2 mph 66 % 0.00 in
23:55 61.6 °F 50.5 °F 29.75 in West 6.2 mph 16.1 mph 67 % 0.00 in
Crab Meadow Weather
Compliments of Weather Underground - 2.75 mb

Script developed by  Jim McMurry - jmcmurry@mwt.net Adapted for the template by  Wim van der Kuil - Leuven-Template.eu

Weather Terms: Degree Day - Gauges the amount of heating or cooling needed for a building using 65 degrees as a baseline. To compute degree days, the average temperature for a day is taken and referenced to 65. An average temperature of 50 yields 15 heating degree days, while an average temperature of 75 would yield 10 cooling degree days.